createdAt,value
2019-04-16T00:00:35.848Z,38.25
2019-04-16T00:03:12.133Z,34.38
2019-04-16T00:05:47.246Z,34.75
2019-04-16T00:08:30.383Z,32.75
2019-04-16T00:11:17.666Z,23.15
2019-04-16T00:13:52.119Z,28.67
2019-04-16T00:16:25.339Z,26.33
2019-04-16T00:19:04.380Z,25.30
2019-04-16T00:21:45.491Z,19.20
2019-04-16T00:24:19.641Z,20.27
2019-04-16T00:26:52.358Z,25.92
2019-04-16T00:31:59.458Z,25.72
2019-04-16T00:34:31.816Z,30.20
2019-04-16T00:37:04.430Z,23.73
2019-04-16T00:39:37.874Z,28.75
2019-04-16T00:42:10.342Z,28.15
2019-04-16T00:44:43.412Z,32.15
2019-04-16T00:49:47.978Z,28.77
2019-04-16T00:52:20.617Z,29.40
2019-04-16T00:54:53.376Z,21.55
2019-04-16T00:57:25.998Z,23.47
2019-04-16T01:00:03.312Z,28.75
2019-04-16T01:02:36.428Z,26.55
2019-04-16T01:07:40.638Z,27.73
2019-04-16T01:10:26.835Z,27.02
2019-04-16T01:12:59.659Z,25.40
2019-04-16T01:15:35.183Z,28.65
2019-04-16T01:18:08.008Z,24.15
2019-04-16T01:20:44.608Z,27.40
2019-04-16T01:23:17.785Z,24.87
2019-04-16T01:25:55.361Z,28.27
2019-04-16T01:28:33.390Z,26.57
2019-04-16T01:31:12.700Z,29.55
2019-04-16T01:33:48.752Z,28.05
2019-04-16T01:36:22.949Z,27.20
2019-04-16T01:39:14.813Z,25.82
2019-04-16T01:41:34.998Z,21.70
2019-04-16T01:44:08.445Z,25.48
2019-04-16T01:46:42.217Z,27.05
2019-04-16T01:49:15.162Z,26.30
2019-04-16T01:51:48.564Z,26.15
2019-04-16T01:57:15.016Z,24.05
2019-04-16T02:02:19.559Z,20.60
2019-04-16T02:04:53.448Z,22.50
2019-04-16T02:07:27.932Z,21.25
2019-04-16T02:10:00.763Z,13.78
2019-04-16T02:15:08.515Z,12.45
2019-04-16T02:17:41.064Z,10.78
2019-04-16T02:20:16.126Z,11.25
2019-04-16T02:22:50.123Z,12.05
2019-04-16T02:25:23.005Z,12.23
2019-04-16T02:27:58.954Z,12.63
2019-04-16T02:30:39.443Z,8.73
2019-04-16T02:33:11.141Z,9.90
2019-04-16T02:35:43.746Z,10.80
2019-04-16T02:38:16.582Z,10.05
2019-04-16T02:40:53.771Z,9.33
2019-04-16T02:43:26.529Z,9.75
2019-04-16T02:45:59.061Z,11.55
2019-04-16T02:48:31.896Z,7.55
2019-04-16T02:51:12.019Z,8.30
2019-04-16T02:53:58.674Z,8.10
2019-04-16T02:56:51.471Z,8.63
2019-04-16T02:59:36.024Z,9.53
2019-04-16T03:02:12.557Z,8.65
2019-04-16T03:04:50.023Z,10.75
2019-04-16T03:07:22.986Z,10.58
2019-04-16T03:12:28.363Z,8.00
2019-04-16T03:15:02.479Z,8.45
2019-04-16T03:17:42.717Z,7.22
2019-04-16T03:20:20.888Z,8.45
2019-04-16T03:22:54.866Z,9.40
2019-04-16T03:25:27.957Z,7.53
2019-04-16T03:28:00.431Z,9.18
2019-04-16T03:30:40.390Z,7.25
2019-04-16T03:33:12.381Z,8.48
2019-04-16T03:35:57.621Z,6.03
2019-04-16T03:38:29.839Z,7.50
2019-04-16T03:41:05.270Z,6.42
2019-04-16T03:43:37.712Z,7.17
2019-04-16T03:46:12.794Z,6.30
2019-04-16T03:48:44.145Z,5.83
2019-04-16T03:51:17.082Z,5.03
2019-04-16T03:53:50.361Z,5.87
2019-04-16T03:56:23.484Z,5.50
2019-04-16T03:58:56.769Z,5.50
2019-04-16T04:01:30.055Z,5.72
2019-04-16T04:04:02.490Z,7.85
2019-04-16T04:06:36.559Z,6.62
2019-04-16T04:09:09.570Z,7.10
2019-04-16T04:11:42.893Z,5.33
2019-04-16T04:14:22.379Z,4.90
2019-04-16T04:16:50.989Z,5.80
2019-04-16T04:22:03.680Z,6.33
2019-04-16T04:24:36.756Z,5.58
2019-04-16T04:29:46.318Z,5.67
2019-04-16T04:32:18.614Z,6.42
2019-04-16T04:34:52.726Z,5.62
2019-04-16T04:37:30.983Z,5.10
2019-04-16T04:40:06.578Z,4.75
2019-04-16T04:42:51.732Z,5.12
2019-04-16T04:45:27.451Z,5.03
2019-04-16T04:48:00.378Z,4.90
2019-04-16T04:50:35.419Z,4.47
2019-04-16T04:53:07.320Z,4.78
2019-04-16T04:55:39.902Z,4.80
2019-04-16T04:58:12.337Z,4.92
2019-04-16T05:00:45.122Z,3.33
2019-04-16T05:03:33.882Z,2.85
2019-04-16T05:06:20.010Z,3.20
2019-04-16T05:08:52.446Z,4.10
2019-04-16T05:11:25.207Z,5.00
2019-04-16T05:13:58.618Z,4.53
2019-04-16T05:19:04.951Z,3.92
2019-04-16T05:21:38.390Z,4.95
2019-04-16T05:26:42.964Z,3.52
2019-04-16T05:29:17.514Z,4.80
2019-04-16T05:31:50.177Z,3.83
2019-04-16T05:34:23.762Z,4.30
2019-04-16T05:36:58.737Z,3.92
2019-04-16T05:39:31.836Z,4.45
2019-04-16T05:42:04.529Z,5.10
2019-04-16T05:44:37.755Z,4.45
2019-04-16T05:47:16.767Z,4.42
2019-04-16T05:49:49.100Z,4.87
2019-04-16T05:52:22.541Z,4.78
2019-04-16T05:55:17.945Z,4.60
2019-04-16T05:57:50.443Z,3.98
2019-04-16T06:00:24.176Z,3.80
2019-04-16T06:02:57.000Z,3.22
2019-04-16T06:08:12.089Z,2.70
2019-04-16T06:10:49.962Z,2.22
2019-04-16T06:13:29.610Z,2.95
2019-04-16T06:16:09.453Z,2.72
2019-04-16T06:19:04.043Z,3.05
2019-04-16T06:21:56.698Z,2.50
2019-04-16T06:24:46.623Z,2.90
2019-04-16T06:27:35.948Z,3.42
2019-04-16T06:30:26.516Z,3.30
2019-04-16T06:33:00.763Z,3.20
2019-04-16T06:35:47.787Z,3.25
2019-04-16T06:38:24.855Z,2.60
2019-04-16T06:41:07.906Z,2.83
2019-04-16T06:43:58.353Z,2.85
2019-04-16T06:46:57.097Z,2.70
2019-04-16T06:49:55.998Z,3.20
2019-04-16T06:52:38.676Z,2.52
2019-04-16T06:55:15.681Z,2.40
2019-04-16T06:58:05.759Z,2.90
2019-04-16T07:00:45.519Z,2.70
2019-04-16T07:03:34.410Z,2.70
2019-04-16T07:06:24.760Z,4.12
2019-04-16T07:09:11.008Z,2.50
2019-04-16T07:11:54.329Z,3.12
2019-04-16T07:14:20.140Z,2.25
2019-04-16T07:16:52.403Z,2.50
2019-04-16T07:19:26.369Z,2.33
2019-04-16T07:21:59.672Z,2.22
2019-04-16T07:24:37.395Z,2.40
2019-04-16T07:27:11.713Z,3.02
2019-04-16T07:29:51.527Z,3.42
2019-04-16T07:32:43.647Z,3.58
2019-04-16T07:35:17.331Z,3.37
2019-04-16T07:38:04.977Z,3.77
2019-04-16T07:40:52.075Z,4.50
2019-04-16T07:43:42.015Z,3.75
2019-04-16T07:46:34.574Z,4.10
2019-04-16T07:49:15.521Z,5.65
2019-04-16T07:51:49.980Z,5.03
2019-04-16T07:54:39.917Z,5.60
2019-04-16T07:57:13.275Z,6.40
2019-04-16T07:59:47.675Z,7.05
2019-04-16T08:02:22.309Z,5.80
2019-04-16T08:04:54.597Z,7.12
2019-04-16T08:07:27.096Z,6.80
2019-04-16T08:10:03.359Z,7.08
2019-04-16T08:12:42.087Z,6.87
2019-04-16T08:15:15.379Z,7.83
2019-04-16T08:17:47.941Z,7.75
2019-04-16T08:20:21.229Z,7.22
2019-04-16T08:22:55.988Z,6.92
2019-04-16T08:25:33.547Z,9.10
2019-04-16T08:28:06.903Z,9.33
2019-04-16T08:30:39.502Z,9.43
2019-04-16T08:33:12.292Z,9.75
2019-04-16T08:35:45.484Z,9.40
2019-04-16T08:38:19.112Z,9.80
2019-04-16T08:40:54.308Z,9.35
2019-04-16T08:43:31.708Z,11.08
2019-04-16T08:46:04.238Z,11.28
2019-04-16T08:48:36.799Z,8.85
2019-04-16T08:51:09.294Z,12.68
2019-04-16T08:53:43.805Z,11.03
2019-04-16T08:56:16.521Z,12.40
2019-04-16T08:58:49.314Z,9.73
2019-04-16T09:01:23.722Z,11.43
2019-04-16T09:04:01.535Z,9.50
2019-04-16T09:06:31.079Z,8.28
2019-04-16T09:09:12.422Z,9.15
2019-04-16T09:11:41.867Z,9.50
2019-04-16T09:14:16.831Z,9.45
2019-04-16T09:16:53.860Z,9.80
2019-04-16T09:19:28.484Z,10.98
2019-04-16T09:22:02.130Z,10.50
2019-04-16T09:24:51.475Z,11.25
2019-04-16T09:27:31.038Z,9.88
2019-04-16T09:30:16.372Z,10.93
2019-04-16T09:32:45.169Z,11.85
2019-04-16T09:35:25.657Z,12.78
2019-04-16T09:37:59.435Z,12.30
2019-04-16T09:40:49.545Z,11.68
2019-04-16T09:43:30.361Z,11.63
2019-04-16T09:46:10.088Z,10.20
2019-04-16T09:48:38.573Z,12.20
2019-04-16T09:51:11.378Z,11.03
2019-04-16T09:53:45.121Z,12.13
2019-04-16T09:59:15.816Z,13.88
2019-04-16T10:01:47.651Z,12.25
2019-04-16T10:04:22.769Z,15.08
2019-04-16T10:06:55.987Z,15.48
2019-04-16T10:09:29.468Z,12.78
2019-04-16T10:14:33.786Z,16.77
2019-04-16T10:17:08.638Z,14.18
2019-04-16T10:19:43.250Z,17.77
2019-04-16T10:22:17.320Z,16.80
2019-04-16T10:25:09.322Z,16.07
2019-04-16T10:27:43.337Z,18.67
2019-04-16T10:30:24.223Z,17.60
2019-04-16T10:32:56.952Z,18.40
2019-04-16T10:35:29.208Z,20.60
2019-04-16T10:38:03.045Z,18.13
2019-04-16T10:40:38.231Z,18.45
2019-04-16T10:43:18.356Z,15.08
2019-04-16T10:45:59.269Z,17.65
2019-04-16T10:48:39.227Z,16.37
2019-04-16T10:51:15.532Z,21.15
2019-04-16T10:53:51.826Z,27.85
2019-04-16T10:56:26.074Z,18.23
2019-04-16T10:59:05.292Z,26.35
2019-04-16T11:01:41.369Z,27.70
2019-04-16T11:04:27.604Z,26.10
2019-04-16T11:07:03.950Z,23.73
2019-04-16T11:09:39.248Z,14.28
2019-04-16T11:12:14.360Z,14.83
2019-04-16T11:14:47.827Z,16.05
2019-04-16T11:17:25.985Z,16.00
2019-04-16T11:20:04.454Z,17.07
2019-04-16T11:22:43.893Z,15.45
2019-04-16T11:25:21.303Z,18.98
2019-04-16T11:27:54.579Z,17.65
2019-04-16T11:30:34.143Z,19.50
2019-04-16T11:33:06.515Z,17.70
2019-04-16T11:35:39.298Z,20.80
2019-04-16T11:38:12.437Z,20.95
2019-04-16T11:40:47.629Z,19.60
2019-04-16T11:43:20.499Z,21.35
2019-04-16T11:45:54.356Z,20.27
2019-04-16T11:48:28.310Z,22.25
2019-04-16T11:51:01.228Z,20.52
2019-04-16T11:56:10.439Z,25.80
2019-04-16T11:58:44.440Z,23.75
2019-04-16T12:01:18.643Z,36.38
2019-04-16T12:03:56.700Z,25.02
2019-04-16T12:06:50.811Z,25.20
2019-04-16T12:09:43.267Z,22.20
2019-04-16T12:12:20.157Z,24.60
2019-04-16T12:15:03.610Z,21.80
2019-04-16T12:17:50.806Z,19.57
2019-04-16T12:20:47.295Z,22.02
2019-04-16T12:23:30.970Z,23.02
2019-04-16T12:26:15.673Z,25.02
2019-04-16T12:28:56.746Z,26.60
2019-04-16T12:31:44.053Z,23.67
2019-04-16T12:34:18.709Z,23.70
2019-04-16T12:37:10.954Z,19.32
2019-04-16T12:39:48.200Z,23.57
2019-04-16T12:42:22.324Z,23.20
2019-04-16T12:44:56.128Z,24.30
2019-04-16T12:47:36.354Z,24.67
2019-04-16T12:50:10.719Z,24.25
2019-04-16T12:53:01.503Z,29.95
2019-04-16T12:55:39.434Z,31.60
2019-04-16T12:58:25.890Z,34.08
2019-04-16T13:01:02.676Z,32.10
2019-04-16T13:03:37.958Z,34.63
2019-04-16T13:06:30.765Z,35.23
2019-04-16T13:09:25.480Z,38.30
2019-04-16T13:15:00.910Z,35.15
2019-04-16T13:17:34.447Z,43.83
2019-04-16T13:20:09.598Z,50.78
2019-04-16T13:23:01.001Z,46.65
2019-04-16T13:25:35.302Z,45.55
2019-04-16T13:28:08.959Z,42.40
2019-04-16T13:30:41.800Z,52.30
2019-04-16T13:33:14.427Z,49.45
2019-04-16T13:35:46.822Z,39.73
2019-04-16T13:38:20.570Z,46.48
2019-04-16T13:40:54.176Z,40.28
2019-04-16T13:43:28.297Z,49.13
2019-04-16T13:46:00.957Z,45.10
2019-04-16T13:48:37.674Z,40.80
2019-04-16T13:51:14.908Z,41.77
2019-04-16T13:54:03.493Z,37.17
2019-04-16T13:56:43.553Z,37.33
2019-04-16T13:59:17.547Z,39.58
2019-04-16T14:02:07.499Z,40.58
2019-04-16T14:04:40.294Z,33.00
2019-04-16T14:07:12.520Z,36.77
2019-04-16T14:09:46.068Z,36.28
2019-04-16T14:12:24.503Z,40.43
2019-04-16T14:14:52.604Z,35.40
2019-04-16T14:17:26.450Z,32.53
2019-04-16T14:19:59.257Z,30.57
2019-04-16T14:22:31.870Z,30.08
2019-04-16T14:25:06.382Z,28.07
2019-04-16T14:27:40.055Z,30.75
2019-04-16T14:30:17.883Z,29.57
2019-04-16T14:32:50.754Z,27.98
2019-04-16T14:35:33.505Z,27.58
2019-04-16T14:38:04.202Z,26.00
2019-04-16T14:40:39.638Z,23.18
2019-04-16T14:43:12.773Z,23.92
2019-04-16T14:45:59.245Z,26.00
2019-04-16T14:48:29.301Z,24.37
2019-04-16T14:51:03.398Z,27.48
2019-04-16T14:53:40.851Z,26.52
2019-04-16T14:56:15.791Z,26.80
2019-04-16T14:58:55.425Z,28.83
2019-04-16T15:01:48.213Z,27.95
2019-04-16T15:04:40.206Z,23.98
2019-04-16T15:07:22.782Z,26.45
2019-04-16T15:11:20.120Z,27.15
2019-04-16T15:19:37.985Z,33.02
2019-04-16T15:22:20.906Z,38.92
2019-04-16T15:27:44.762Z,44.65
2019-04-16T15:30:36.225Z,42.75
2019-04-16T15:33:26.874Z,43.30
2019-04-16T15:36:17.709Z,52.53
2019-04-16T15:39:02.902Z,52.70
2019-04-16T15:41:38.313Z,53.65
2019-04-16T15:45:18.909Z,51.55
2019-04-16T15:47:52.424Z,60.10
2019-04-16T15:54:52.407Z,54.45
2019-04-16T15:56:53.759Z,56.85
2019-04-16T15:59:49.671Z,55.20
2019-04-16T16:02:39.855Z,48.85
2019-04-16T16:05:17.583Z,51.18
2019-04-16T16:07:56.017Z,50.67
2019-04-16T16:10:29.048Z,47.67
2019-04-16T16:13:01.514Z,46.75
2019-04-16T16:15:34.183Z,46.15
2019-04-16T16:18:06.678Z,46.25
2019-04-16T16:20:38.978Z,45.00
2019-04-16T16:23:19.274Z,44.23
2019-04-16T16:26:03.952Z,40.80
2019-04-16T16:28:32.006Z,40.25
2019-04-16T16:31:04.595Z,40.55
2019-04-16T16:33:36.928Z,39.93
2019-04-16T16:36:09.318Z,37.88
2019-04-16T16:38:56.520Z,37.95
2019-04-16T16:41:37.456Z,38.73
2019-04-16T16:45:25.862Z,35.13
2019-04-16T16:47:17.979Z,36.83
2019-04-16T16:50:07.526Z,35.85
2019-04-16T16:52:43.496Z,36.90
2019-04-16T16:55:17.622Z,38.88
2019-04-16T16:57:52.341Z,39.73
2019-04-16T17:00:47.370Z,39.42
2019-04-16T17:03:36.463Z,38.50
2019-04-16T17:06:05.208Z,36.30
2019-04-16T17:08:40.884Z,37.38
2019-04-16T17:11:16.749Z,38.17
2019-04-16T17:13:47.152Z,36.70
2019-04-16T17:16:19.523Z,36.55
2019-04-16T17:18:52.178Z,37.35
2019-04-16T17:21:24.504Z,29.13
2019-04-16T17:23:57.177Z,34.75
2019-04-16T17:29:01.432Z,33.33
2019-04-16T17:31:36.039Z,34.73
2019-04-16T17:34:08.768Z,35.25
2019-04-16T17:39:14.374Z,36.93
2019-04-16T17:41:57.806Z,39.15
2019-04-16T17:44:35.861Z,37.70
2019-04-16T17:47:10.181Z,36.83
2019-04-16T17:49:44.005Z,34.85
2019-04-16T17:52:20.369Z,33.90
2019-04-16T17:54:57.452Z,29.32
2019-04-16T17:57:31.489Z,36.83
2019-04-16T18:00:21.399Z,33.13
2019-04-16T18:03:04.681Z,30.77
2019-04-16T18:05:41.897Z,39.20
2019-04-16T18:08:31.941Z,39.78
2019-04-16T18:11:12.416Z,40.15
2019-04-16T18:13:46.004Z,43.50
2019-04-16T18:16:20.549Z,47.17
2019-04-16T18:19:00.468Z,50.80
2019-04-16T18:21:34.147Z,49.70
2019-04-16T18:24:17.087Z,55.15
2019-04-16T18:26:50.816Z,67.50
2019-04-16T18:29:33.727Z,70.52
2019-04-16T18:32:16.909Z,80.32
2019-04-16T18:34:50.493Z,81.72
2019-04-16T18:37:39.748Z,91.05
2019-04-16T18:40:29.487Z,90.60
2019-04-16T18:43:06.958Z,81.72
2019-04-16T18:45:40.573Z,84.65
2019-04-16T18:48:14.522Z,78.17
2019-04-16T18:50:46.637Z,88.30
2019-04-16T18:53:19.284Z,89.80
2019-04-16T18:55:51.494Z,90.43
2019-04-16T18:58:25.232Z,87.53
2019-04-16T19:00:58.844Z,91.37
2019-04-16T19:03:31.463Z,94.10
2019-04-16T19:06:04.208Z,96.25
2019-04-16T19:08:42.132Z,96.10
2019-04-16T19:11:10.684Z,97.37
2019-04-16T19:13:43.349Z,104.60
2019-04-16T19:16:15.674Z,107.23
2019-04-16T19:18:48.004Z,111.92
2019-04-16T19:21:20.715Z,108.10
2019-04-16T19:23:53.789Z,109.65
2019-04-16T19:28:58.204Z,113.15
2019-04-16T19:31:31.005Z,115.17
2019-04-16T19:34:08.369Z,100.45
2019-04-16T19:36:37.285Z,105.87
2019-04-16T19:39:13.790Z,109.92
2019-04-16T19:41:43.607Z,102.12
2019-04-16T19:44:16.375Z,98.62
2019-04-16T19:46:52.638Z,104.60
2019-04-16T19:49:23.409Z,103.42
2019-04-16T19:51:55.741Z,95.30
2019-04-16T19:54:31.491Z,98.58
2019-04-16T19:57:02.115Z,97.12
2019-04-16T19:59:34.452Z,89.10
2019-04-16T20:02:08.437Z,84.37
2019-04-16T20:04:41.365Z,88.07
2019-04-16T20:07:14.584Z,93.03
2019-04-16T20:09:47.239Z,89.65
2019-04-16T20:12:19.436Z,89.30
2019-04-16T20:14:52.156Z,84.47
2019-04-16T20:17:24.283Z,89.33
2019-04-16T20:20:01.042Z,84.95
2019-04-16T20:22:36.577Z,82.50
2019-04-16T20:25:09.764Z,85.62
2019-04-16T20:27:42.342Z,85.25
2019-04-16T20:30:15.966Z,86.87
2019-04-16T20:32:48.628Z,88.92
2019-04-16T20:35:21.838Z,89.90
2019-04-16T20:40:27.295Z,84.50
2019-04-16T20:42:59.683Z,90.05
2019-04-16T20:45:32.533Z,86.00
2019-04-16T20:48:04.904Z,85.47
2019-04-16T20:50:37.592Z,81.87
2019-04-16T20:53:09.859Z,85.55
2019-04-16T20:55:47.076Z,89.87
2019-04-16T20:58:18.858Z,83.78
2019-04-16T21:00:52.604Z,85.12
2019-04-16T21:03:24.823Z,86.63
2019-04-16T21:05:59.678Z,84.50
2019-04-16T21:08:31.403Z,82.02
2019-04-16T21:11:07.361Z,84.83
2019-04-16T21:13:37.188Z,87.45
2019-04-16T21:16:10.015Z,89.03
2019-04-16T21:18:42.232Z,87.22
2019-04-16T21:21:15.293Z,88.92
2019-04-16T21:23:47.392Z,88.20
2019-04-16T21:26:20.275Z,87.55
2019-04-16T21:29:02.110Z,88.78
2019-04-16T21:31:43.921Z,85.60
2019-04-16T21:34:24.262Z,87.55
2019-04-16T21:37:09.293Z,86.78
2019-04-16T21:39:42.843Z,83.50
2019-04-16T21:42:15.706Z,80.50
2019-04-16T21:44:47.977Z,83.62
2019-04-16T21:47:23.626Z,89.22
2019-04-16T21:49:54.749Z,91.02
2019-04-16T21:52:27.234Z,92.65
2019-04-16T21:55:03.014Z,92.33
2019-04-16T21:57:34.179Z,94.37
2019-04-16T22:00:12.031Z,88.87
2019-04-16T22:02:47.223Z,89.22
2019-04-16T22:05:19.924Z,86.25
2019-04-16T22:07:53.640Z,87.27
2019-04-16T22:10:25.790Z,81.55
2019-04-16T22:12:58.184Z,85.97
2019-04-16T22:15:30.729Z,85.50
2019-04-16T22:18:07.582Z,86.78
2019-04-16T22:20:36.874Z,87.82
2019-04-16T22:23:09.489Z,88.12
2019-04-16T22:25:42.255Z,85.13
2019-04-16T22:28:15.374Z,82.02
2019-04-16T22:30:51.202Z,81.80
2019-04-16T22:33:22.653Z,81.45
2019-04-16T22:35:55.081Z,76.77
2019-04-16T22:38:29.314Z,80.77
2019-04-16T22:41:03.343Z,79.87
2019-04-16T22:43:53.533Z,77.85
2019-04-16T22:46:30.288Z,75.42
2019-04-16T22:49:03.148Z,75.22
2019-04-16T22:51:35.513Z,78.40
2019-04-16T22:54:07.895Z,81.30
2019-04-16T22:57:01.982Z,74.33
2019-04-16T22:59:31.756Z,75.32
2019-04-16T23:02:05.418Z,67.78
2019-04-16T23:04:38.017Z,66.15
2019-04-16T23:07:11.992Z,68.87
2019-04-16T23:09:45.728Z,69.00
2019-04-16T23:12:20.874Z,67.70
2019-04-16T23:14:53.439Z,65.80
2019-04-16T23:17:27.080Z,59.17
2019-04-16T23:19:59.618Z,54.53
2019-04-16T23:22:33.316Z,58.78
2019-04-16T23:27:37.582Z,54.35
2019-04-16T23:30:10.862Z,54.95
2019-04-16T23:32:43.579Z,53.15
2019-04-16T23:35:16.901Z,52.53
2019-04-16T23:40:20.719Z,49.80
2019-04-16T23:42:55.901Z,52.53
2019-04-16T23:45:38.902Z,50.60
2019-04-16T23:48:29.116Z,51.48
2019-04-16T23:51:04.408Z,51.88
2019-04-16T23:53:39.052Z,51.53
2019-04-16T23:56:23.457Z,50.85
2019-04-16T23:59:06.565Z,50.70
